Hudson, Michigan
Current Conditions -  °F | °C
As of 4:55 AM on Thursday 23 Oct 2014 (Local Time) from KJYM Reporting Station
Haze Haze  
Wind Chill: 29°   Ceiling: 100
Heat Index: 29°   Visibility: 0.75mi
Dew Point: 29°   Wind: 0mph
Humidity: 100%   Direction: NA
Pressure: 30.25"   Gusts: NA
Location:  41.86°N, 84.35°W
Report Text: KJYM 230855Z AUTO 00000KT 3/4SM BR OVC001 M02/M02 A3025 RMK AO2 VIS 1/2V2 T10161016
Loading
Personal Weather Stations






























Interactive Weather Map
Tropical Storm Tracking
New forecast layout! Learn more

10-Day Weather Forecast

Advertisements
Track Severe Weather on mobile